sensor_id;sensor_type;location;lat;lon;timestamp;temperature;humidity
46890;DHT22;32625;51.080;16.970;2022-12-18T00:01:24;-3.70;99.90
46890;DHT22;32625;51.080;16.970;2022-12-18T00:03:53;-2.60;99.90
46890;DHT22;32625;51.080;16.970;2022-12-18T00:06:25;-2.70;99.90
46890;DHT22;32625;51.080;16.970;2022-12-18T00:08:56;-3.70;99.90
46890;DHT22;32625;51.080;16.970;2022-12-18T00:11:25;-3.00;99.90
46890;DHT22;32625;51.080;16.970;2022-12-18T00:13:55;-2.60;99.90
46890;DHT22;32625;51.080;16.970;2022-12-18T00:16:24;-2.70;99.90
46890;DHT22;32625;51.080;16.970;2022-12-18T00:18:58;-3.70;99.90
46890;DHT22;32625;51.080;16.970;2022-12-18T00:21:28;-3.70;99.90
46890;DHT22;32625;51.080;16.970;2022-12-18T00:23:56;-2.30;99.90
46890;DHT22;32625;51.080;16.970;2022-12-18T00:26:32;-2.50;99.90
46890;DHT22;32625;51.080;16.970;2022-12-18T00:29:11;-2.60;99.90
46890;DHT22;32625;51.080;16.970;2022-12-18T00:31:38;-3.70;99.90
46890;DHT22;32625;51.080;16.970;2022-12-18T00:34:06;-2.70;99.90
46890;DHT22;32625;51.080;16.970;2022-12-18T00:36:34;-2.40;99.90
46890;DHT22;32625;51.080;16.970;2022-12-18T00:39:04;-1.90;99.90
46890;DHT22;32625;51.080;16.970;2022-12-18T00:41:32;-2.20;99.90
46890;DHT22;32625;51.080;16.970;2022-12-18T00:44:18;-2.70;99.90
46890;DHT22;32625;51.080;16.970;2022-12-18T00:46:47;-3.20;99.90
46890;DHT22;32625;51.080;16.970;2022-12-18T00:49:17;-2.60;99.90
46890;DHT22;32625;51.080;16.970;2022-12-18T00:51:50;-3.60;99.90
46890;DHT22;32625;51.080;16.970;2022-12-18T00:54:18;-2.70;99.90
46890;DHT22;32625;51.080;16.970;2022-12-18T00:56:45;-2.50;99.90
46890;DHT22;32625;51.080;16.970;2022-12-18T00:59:17;-3.60;99.90
46890;DHT22;32625;51.080;16.970;2022-12-18T01:01:45;-3.60;99.90
46890;DHT22;32625;51.080;16.970;2022-12-18T01:04:13;-3.60;99.90
46890;DHT22;32625;51.080;16.970;2022-12-18T01:06:40;-2.70;99.90
46890;DHT22;32625;51.080;16.970;2022-12-18T01:09:07;-2.20;99.90
46890;DHT22;32625;51.080;16.970;2022-12-18T01:11:36;-2.60;99.90
46890;DHT22;32625;51.080;16.970;2022-12-18T01:14:04;-3.10;99.90
46890;DHT22;32625;51.080;16.970;2022-12-18T01:16:31;-2.70;99.90
46890;DHT22;32625;51.080;16.970;2022-12-18T01:18:58;-2.20;99.90
46890;DHT22;32625;51.080;16.970;2022-12-18T01:21:26;-2.10;99.90
46890;DHT22;32625;51.080;16.970;2022-12-18T01:23:55;-3.60;99.90
46890;DHT22;32625;51.080;16.970;2022-12-18T01:26:24;-3.10;99.90
46890;DHT22;32625;51.080;16.970;2022-12-18T01:28:53;-2.40;99.90
46890;DHT22;32625;51.080;16.970;2022-12-18T01:31:27;-2.40;99.90
46890;DHT22;32625;51.080;16.970;2022-12-18T01:33:56;-2.50;99.90
46890;DHT22;32625;51.080;16.970;2022-12-18T01:36:29;-2.40;99.90
46890;DHT22;32625;51.080;16.970;2022-12-18T01:38:58;-2.70;99.90
46890;DHT22;32625;51.080;16.970;2022-12-18T01:41:27;-3.60;99.90
46890;DHT22;32625;51.080;16.970;2022-12-18T01:49:53;-3.60;99.90
46890;DHT22;32625;51.080;16.970;2022-12-18T01:52:21;-2.00;99.90
46890;DHT22;32625;51.080;16.970;2022-12-18T01:54:50;-2.10;99.90
46890;DHT22;32625;51.080;16.970;2022-12-18T01:57:20;-3.20;99.90
46890;DHT22;32625;51.080;16.970;2022-12-18T01:59:51;-2.50;99.90
46890;DHT22;32625;51.080;16.970;2022-12-18T02:02:20;-2.40;99.90
46890;DHT22;32625;51.080;16.970;2022-12-18T02:04:48;-2.30;99.90
46890;DHT22;32625;51.080;16.970;2022-12-18T02:10:39;-3.50;99.90
46890;DHT22;32625;51.080;16.970;2022-12-18T02:15:58;-3.40;99.90
46890;DHT22;32625;51.080;16.970;2022-12-18T02:18:36;-2.10;99.90
46890;DHT22;32625;51.080;16.970;2022-12-18T02:21:43;-2.20;99.90
46890;DHT22;32625;51.080;16.970;2022-12-18T02:26:49;-3.50;99.90
46890;DHT22;32625;51.080;16.970;2022-12-18T02:29:27;-3.50;99.90
46890;DHT22;32625;51.080;16.970;2022-12-18T02:31:59;-3.50;99.90
46890;DHT22;32625;51.080;16.970;2022-12-18T02:34:30;-3.50;99.90
46890;DHT22;32625;51.080;16.970;2022-12-18T02:37:00;-2.30;99.90
46890;DHT22;32625;51.080;16.970;2022-12-18T02:39:30;-2.30;99.90
46890;DHT22;32625;51.080;16.970;2022-12-18T02:42:03;-3.50;99.90
46890;DHT22;32625;51.080;16.970;2022-12-18T02:44:45;-3.50;99.90
46890;DHT22;32625;51.080;16.970;2022-12-18T02:47:19;-2.00;99.90
46890;DHT22;32625;51.080;16.970;2022-12-18T02:53:17;-3.50;99.90
46890;DHT22;32625;51.080;16.970;2022-12-18T02:55:59;-3.50;99.90
46890;DHT22;32625;51.080;16.970;2022-12-18T03:01:34;-3.60;99.90
46890;DHT22;32625;51.080;16.970;2022-12-18T03:04:19;-2.60;99.90
46890;DHT22;32625;51.080;16.970;2022-12-18T03:06:55;-2.40;99.90
46890;DHT22;32625;51.080;16.970;2022-12-18T03:09:36;-2.40;99.90
46890;DHT22;32625;51.080;16.970;2022-12-18T03:12:29;-3.50;99.90
46890;DHT22;32625;51.080;16.970;2022-12-18T03:15:12;-2.60;99.90
46890;DHT22;32625;51.080;16.970;2022-12-18T03:17:48;-3.50;99.90
46890;DHT22;32625;51.080;16.970;2022-12-18T03:20:20;-2.70;99.90
46890;DHT22;32625;51.080;16.970;2022-12-18T03:22:51;-3.50;99.90
46890;DHT22;32625;51.080;16.970;2022-12-18T03:25:20;-2.90;99.90
46890;DHT22;32625;51.080;16.970;2022-12-18T03:27:55;-3.40;99.90
46890;DHT22;32625;51.080;16.970;2022-12-18T03:30:26;-3.10;99.90
46890;DHT22;32625;51.080;16.970;2022-12-18T03:33:08;-2.00;99.90
46890;DHT22;32625;51.080;16.970;2022-12-18T03:35:40;-1.90;99.90
46890;DHT22;32625;51.080;16.970;2022-12-18T03:38:10;-3.50;99.90
46890;DHT22;32625;51.080;16.970;2022-12-18T03:40:59;-2.30;99.90
46890;DHT22;32625;51.080;16.970;2022-12-18T03:44:03;-2.50;99.90
46890;DHT22;32625;51.080;16.970;2022-12-18T03:46:56;-3.50;99.90
46890;DHT22;32625;51.080;16.970;2022-12-18T03:52:23;-3.50;99.90
46890;DHT22;32625;51.080;16.970;2022-12-18T03:54:54;-2.70;99.90
46890;DHT22;32625;51.080;16.970;2022-12-18T03:57:26;-3.00;99.90
46890;DHT22;32625;51.080;16.970;2022-12-18T04:00:04;-2.20;99.90
46890;DHT22;32625;51.080;16.970;2022-12-18T04:03:03;-3.60;99.90
46890;DHT22;32625;51.080;16.970;2022-12-18T04:05:42;-3.60;99.90
46890;DHT22;32625;51.080;16.970;2022-12-18T04:08:12;-3.60;99.90
46890;DHT22;32625;51.080;16.970;2022-12-18T04:10:42;-3.50;99.90
46890;DHT22;32625;51.080;16.970;2022-12-18T04:13:11;-2.30;99.90
46890;DHT22;32625;51.080;16.970;2022-12-18T04:15:38;-2.50;99.90
46890;DHT22;32625;51.080;16.970;2022-12-18T04:18:10;-3.60;99.90
46890;DHT22;32625;51.080;16.970;2022-12-18T04:20:40;-2.70;99.90
46890;DHT22;32625;51.080;16.970;2022-12-18T04:23:07;-2.40;99.90
46890;DHT22;32625;51.080;16.970;2022-12-18T04:25:36;-2.40;99.90
46890;DHT22;32625;51.080;16.970;2022-12-18T04:28:06;-3.60;99.90
46890;DHT22;32625;51.080;16.970;2022-12-18T04:30:35;-3.00;99.90
46890;DHT22;32625;51.080;16.970;2022-12-18T04:33:02;-2.80;99.90
46890;DHT22;32625;51.080;16.970;2022-12-18T04:35:31;-3.60;99.90
46890;DHT22;32625;51.080;16.970;2022-12-18T04:37:58;-2.60;99.90
46890;DHT22;32625;51.080;16.970;2022-12-18T04:40:26;-2.40;99.90
46890;DHT22;32625;51.080;16.970;2022-12-18T04:42:54;-2.60;99.90
46890;DHT22;32625;51.080;16.970;2022-12-18T04:45:21;-2.30;99.90
46890;DHT22;32625;51.080;16.970;2022-12-18T04:47:48;-3.70;99.90
46890;DHT22;32625;51.080;16.970;2022-12-18T04:50:16;-3.70;99.90
46890;DHT22;32625;51.080;16.970;2022-12-18T04:52:44;-3.50;99.90
46890;DHT22;32625;51.080;16.970;2022-12-18T04:55:12;-2.30;99.90
46890;DHT22;32625;51.080;16.970;2022-12-18T04:57:39;-3.70;99.90
46890;DHT22;32625;51.080;16.970;2022-12-18T05:00:07;-2.00;99.90
46890;DHT22;32625;51.080;16.970;2022-12-18T05:02:34;-3.70;99.90
46890;DHT22;32625;51.080;16.970;2022-12-18T05:05:02;-2.70;99.90
46890;DHT22;32625;51.080;16.970;2022-12-18T05:07:29;-3.70;99.90
46890;DHT22;32625;51.080;16.970;2022-12-18T05:09:56;-2.40;99.90
46890;DHT22;32625;51.080;16.970;2022-12-18T05:12:23;-2.40;99.90
46890;DHT22;32625;51.080;16.970;2022-12-18T05:14:50;-3.80;99.90
46890;DHT22;32625;51.080;16.970;2022-12-18T05:17:17;-3.70;99.90
46890;DHT22;32625;51.080;16.970;2022-12-18T05:19:44;-2.40;99.90
46890;DHT22;32625;51.080;16.970;2022-12-18T05:22:11;-2.80;99.90
46890;DHT22;32625;51.080;16.970;2022-12-18T05:24:39;-2.60;99.90
46890;DHT22;32625;51.080;16.970;2022-12-18T05:27:06;-3.10;99.90
46890;DHT22;32625;51.080;16.970;2022-12-18T05:29:33;-2.50;99.90
46890;DHT22;32625;51.080;16.970;2022-12-18T05:32:00;-2.30;99.90
46890;DHT22;32625;51.080;16.970;2022-12-18T05:34:27;-2.50;99.90
46890;DHT22;32625;51.080;16.970;2022-12-18T05:36:54;-2.10;99.90
46890;DHT22;32625;51.080;16.970;2022-12-18T05:39:21;-3.80;99.90
46890;DHT22;32625;51.080;16.970;2022-12-18T05:41:49;-2.90;99.90
46890;DHT22;32625;51.080;16.970;2022-12-18T05:44:16;-3.80;99.90
46890;DHT22;32625;51.080;16.970;2022-12-18T05:46:43;-3.50;99.90
46890;DHT22;32625;51.080;16.970;2022-12-18T05:49:10;-3.80;99.90
46890;DHT22;32625;51.080;16.970;2022-12-18T05:51:37;-2.00;99.90
46890;DHT22;32625;51.080;16.970;2022-12-18T05:54:05;-2.60;99.90
46890;DHT22;32625;51.080;16.970;2022-12-18T05:56:32;-2.60;99.90
46890;DHT22;32625;51.080;16.970;2022-12-18T05:58:59;-2.60;99.90
46890;DHT22;32625;51.080;16.970;2022-12-18T06:01:26;-3.90;99.90
46890;DHT22;32625;51.080;16.970;2022-12-18T06:03:55;-3.80;99.90
46890;DHT22;32625;51.080;16.970;2022-12-18T06:06:25;-3.90;99.90
46890;DHT22;32625;51.080;16.970;2022-12-18T06:08:53;-4.00;99.90
46890;DHT22;32625;51.080;16.970;2022-12-18T06:11:25;-2.90;99.90
46890;DHT22;32625;51.080;16.970;2022-12-18T06:13:54;-2.90;99.90
46890;DHT22;32625;51.080;16.970;2022-12-18T06:16:25;-2.60;99.90
46890;DHT22;32625;51.080;16.970;2022-12-18T06:18:57;-3.60;99.90
46890;DHT22;32625;51.080;16.970;2022-12-18T06:21:26;-3.90;99.90
46890;DHT22;32625;51.080;16.970;2022-12-18T06:23:53;-3.90;99.90
46890;DHT22;32625;51.080;16.970;2022-12-18T06:26:20;-2.90;99.90
46890;DHT22;32625;51.080;16.970;2022-12-18T06:28:53;-2.70;99.90
46890;DHT22;32625;51.080;16.970;2022-12-18T06:31:21;-3.00;99.90
46890;DHT22;32625;51.080;16.970;2022-12-18T06:33:48;-2.60;99.90
46890;DHT22;32625;51.080;16.970;2022-12-18T06:36:15;-3.30;99.90
46890;DHT22;32625;51.080;16.970;2022-12-18T06:38:44;-3.90;99.90
46890;DHT22;32625;51.080;16.970;2022-12-18T06:41:16;-3.80;99.90
46890;DHT22;32625;51.080;16.970;2022-12-18T06:43:43;-3.30;99.90
46890;DHT22;32625;51.080;16.970;2022-12-18T06:46:12;-3.10;99.90
46890;DHT22;32625;51.080;16.970;2022-12-18T06:48:39;-2.70;99.90
46890;DHT22;32625;51.080;16.970;2022-12-18T06:51:07;-3.90;99.90
46890;DHT22;32625;51.080;16.970;2022-12-18T06:53:34;-2.00;99.90
46890;DHT22;32625;51.080;16.970;2022-12-18T06:56:05;-2.70;99.90
46890;DHT22;32625;51.080;16.970;2022-12-18T06:58:37;-4.00;99.90
46890;DHT22;32625;51.080;16.970;2022-12-18T07:01:06;-3.20;99.90
46890;DHT22;32625;51.080;16.970;2022-12-18T07:03:33;-2.40;99.90
46890;DHT22;32625;51.080;16.970;2022-12-18T07:06:00;-2.80;99.90
46890;DHT22;32625;51.080;16.970;2022-12-18T07:08:29;-1.90;99.90
46890;DHT22;32625;51.080;16.970;2022-12-18T07:10:57;-2.80;99.90
46890;DHT22;32625;51.080;16.970;2022-12-18T07:13:24;-3.50;99.90
46890;DHT22;32625;51.080;16.970;2022-12-18T07:15:51;-2.90;99.90
46890;DHT22;32625;51.080;16.970;2022-12-18T07:18:18;-3.90;99.90
46890;DHT22;32625;51.080;16.970;2022-12-18T07:20:45;-2.90;99.90
46890;DHT22;32625;51.080;16.970;2022-12-18T07:23:14;-2.80;99.90
46890;DHT22;32625;51.080;16.970;2022-12-18T07:25:41;-2.50;99.90
46890;DHT22;32625;51.080;16.970;2022-12-18T07:28:08;-2.30;99.90
46890;DHT22;32625;51.080;16.970;2022-12-18T07:30:42;-2.50;99.90
46890;DHT22;32625;51.080;16.970;2022-12-18T07:33:10;-4.00;99.90
46890;DHT22;32625;51.080;16.970;2022-12-18T07:35:37;-2.80;99.90
46890;DHT22;32625;51.080;16.970;2022-12-18T07:38:04;-2.20;99.90
46890;DHT22;32625;51.080;16.970;2022-12-18T07:40:31;-3.80;99.90
46890;DHT22;32625;51.080;16.970;2022-12-18T07:42:58;-2.60;99.90
46890;DHT22;32625;51.080;16.970;2022-12-18T07:45:25;-3.00;99.90
46890;DHT22;32625;51.080;16.970;2022-12-18T07:47:52;-3.00;99.90
46890;DHT22;32625;51.080;16.970;2022-12-18T07:50:20;-3.30;99.90
46890;DHT22;32625;51.080;16.970;2022-12-18T07:52:47;-3.90;99.90
46890;DHT22;32625;51.080;16.970;2022-12-18T07:55:14;-3.80;99.90
46890;DHT22;32625;51.080;16.970;2022-12-18T07:57:41;-3.90;99.90
46890;DHT22;32625;51.080;16.970;2022-12-18T08:00:17;-2.70;99.90
46890;DHT22;32625;51.080;16.970;2022-12-18T08:02:44;-3.80;99.90
46890;DHT22;32625;51.080;16.970;2022-12-18T08:05:11;-3.70;99.90
46890;DHT22;32625;51.080;16.970;2022-12-18T08:07:39;-3.80;99.90
46890;DHT22;32625;51.080;16.970;2022-12-18T08:10:06;-4.00;99.90
46890;DHT22;32625;51.080;16.970;2022-12-18T08:12:33;-4.00;99.90
46890;DHT22;32625;51.080;16.970;2022-12-18T08:15:01;-2.80;99.90
46890;DHT22;32625;51.080;16.970;2022-12-18T08:17:28;-3.00;99.90
46890;DHT22;32625;51.080;16.970;2022-12-18T08:19:55;-2.80;99.90
46890;DHT22;32625;51.080;16.970;2022-12-18T08:22:22;-3.50;99.90
46890;DHT22;32625;51.080;16.970;2022-12-18T08:24:49;-3.80;99.90
46890;DHT22;32625;51.080;16.970;2022-12-18T08:27:16;-3.80;99.90
46890;DHT22;32625;51.080;16.970;2022-12-18T08:29:56;-3.80;99.90
46890;DHT22;32625;51.080;16.970;2022-12-18T08:32:24;-3.80;99.90
46890;DHT22;32625;51.080;16.970;2022-12-18T08:34:52;-2.50;99.90
46890;DHT22;32625;51.080;16.970;2022-12-18T08:37:19;-2.70;99.90
46890;DHT22;32625;51.080;16.970;2022-12-18T08:39:46;-2.70;99.90
46890;DHT22;32625;51.080;16.970;2022-12-18T08:42:13;-2.00;99.90
46890;DHT22;32625;51.080;16.970;2022-12-18T08:44:59;-3.60;99.90
46890;DHT22;32625;51.080;16.970;2022-12-18T08:47:26;-2.40;99.90
46890;DHT22;32625;51.080;16.970;2022-12-18T08:49:53;-2.90;99.90
46890;DHT22;32625;51.080;16.970;2022-12-18T08:52:23;-2.60;99.90
46890;DHT22;32625;51.080;16.970;2022-12-18T08:54:50;-2.20;99.90
46890;DHT22;32625;51.080;16.970;2022-12-18T08:57:17;-2.20;99.90
46890;DHT22;32625;51.080;16.970;2022-12-18T08:59:44;-2.80;99.90
46890;DHT22;32625;51.080;16.970;2022-12-18T09:02:12;-3.40;99.90
46890;DHT22;32625;51.080;16.970;2022-12-18T09:04:39;-2.30;99.90
46890;DHT22;32625;51.080;16.970;2022-12-18T09:07:06;-3.40;99.90
46890;DHT22;32625;51.080;16.970;2022-12-18T09:09:33;-2.60;99.90
46890;DHT22;32625;51.080;16.970;2022-12-18T09:12:00;-2.30;99.90
46890;DHT22;32625;51.080;16.970;2022-12-18T09:14:28;-2.30;99.90
46890;DHT22;32625;51.080;16.970;2022-12-18T09:16:55;-2.50;99.90
46890;DHT22;32625;51.080;16.970;2022-12-18T09:19:22;-2.60;99.90
46890;DHT22;32625;51.080;16.970;2022-12-18T09:21:49;-3.40;99.90
46890;DHT22;32625;51.080;16.970;2022-12-18T09:24:16;-2.20;99.90
46890;DHT22;32625;51.080;16.970;2022-12-18T09:26:43;-3.30;99.90
46890;DHT22;32625;51.080;16.970;2022-12-18T09:29:14;-2.50;99.90
46890;DHT22;32625;51.080;16.970;2022-12-18T09:31:42;-3.00;99.90
46890;DHT22;32625;51.080;16.970;2022-12-18T09:34:09;-3.10;99.90
46890;DHT22;32625;51.080;16.970;2022-12-18T09:36:37;-1.50;99.90
46890;DHT22;32625;51.080;16.970;2022-12-18T09:39:04;-2.30;99.90
46890;DHT22;32625;51.080;16.970;2022-12-18T09:41:41;-3.50;99.90
46890;DHT22;32625;51.080;16.970;2022-12-18T09:47:05;-3.40;99.90
46890;DHT22;32625;51.080;16.970;2022-12-18T09:49:38;-2.50;99.90
46890;DHT22;32625;51.080;16.970;2022-12-18T09:52:17;-1.50;99.90
46890;DHT22;32625;51.080;16.970;2022-12-18T09:54:52;-3.30;99.90
46890;DHT22;32625;51.080;16.970;2022-12-18T09:57:22;-2.10;99.90
46890;DHT22;32625;51.080;16.970;2022-12-18T10:00:08;-3.30;99.90
46890;DHT22;32625;51.080;16.970;2022-12-18T10:02:40;-3.40;99.90
46890;DHT22;32625;51.080;16.970;2022-12-18T10:05:13;-3.50;99.90
46890;DHT22;32625;51.080;16.970;2022-12-18T10:10:52;-2.70;99.90
46890;DHT22;32625;51.080;16.970;2022-12-18T10:13:42;-3.40;99.90
46890;DHT22;32625;51.080;16.970;2022-12-18T10:17:07;-3.30;99.90
46890;DHT22;32625;51.080;16.970;2022-12-18T10:25:21;-3.50;99.90
46890;DHT22;32625;51.080;16.970;2022-12-18T10:27:53;-3.60;99.90
46890;DHT22;32625;51.080;16.970;2022-12-18T10:30:24;-3.50;99.90
46890;DHT22;32625;51.080;16.970;2022-12-18T10:32:51;-2.80;99.90
46890;DHT22;32625;51.080;16.970;2022-12-18T10:35:22;-3.50;99.90
46890;DHT22;32625;51.080;16.970;2022-12-18T10:40:57;-3.40;99.90
46890;DHT22;32625;51.080;16.970;2022-12-18T10:43:32;-3.60;99.90
46890;DHT22;32625;51.080;16.970;2022-12-18T10:54:05;-3.50;99.90
46890;DHT22;32625;51.080;16.970;2022-12-18T10:56:35;-3.50;99.90
46890;DHT22;32625;51.080;16.970;2022-12-18T10:59:11;-3.50;99.90
46890;DHT22;32625;51.080;16.970;2022-12-18T11:01:55;-3.50;99.90
46890;DHT22;32625;51.080;16.970;2022-12-18T11:04:24;-3.50;99.90
46890;DHT22;32625;51.080;16.970;2022-12-18T11:07:01;-2.90;99.90
46890;DHT22;32625;51.080;16.970;2022-12-18T11:09:37;-3.50;99.90
46890;DHT22;32625;51.080;16.970;2022-12-18T11:12:17;-2.10;99.90
46890;DHT22;32625;51.080;16.970;2022-12-18T11:14:49;-2.50;99.90
46890;DHT22;32625;51.080;16.970;2022-12-18T11:19:57;-3.30;99.90
46890;DHT22;32625;51.080;16.970;2022-12-18T11:22:32;-3.40;99.90
46890;DHT22;32625;51.080;16.970;2022-12-18T11:27:52;-2.20;99.90
46890;DHT22;32625;51.080;16.970;2022-12-18T11:33:13;-3.10;99.90
46890;DHT22;32625;51.080;16.970;2022-12-18T11:38:27;-3.30;99.90
46890;DHT22;32625;51.080;16.970;2022-12-18T11:41:25;-3.00;99.90
46890;DHT22;32625;51.080;16.970;2022-12-18T11:44:48;-3.50;99.90
46890;DHT22;32625;51.080;16.970;2022-12-18T11:50:02;-3.30;99.90
46890;DHT22;32625;51.080;16.970;2022-12-18T11:52:40;-3.30;99.90
46890;DHT22;32625;51.080;16.970;2022-12-18T11:55:15;-2.40;99.90
46890;DHT22;32625;51.080;16.970;2022-12-18T12:00:23;-3.30;99.90
46890;DHT22;32625;51.080;16.970;2022-12-18T12:11:16;-3.30;99.90
46890;DHT22;32625;51.080;16.970;2022-12-18T12:19:44;-3.40;99.90
46890;DHT22;32625;51.080;16.970;2022-12-18T12:22:19;-3.50;99.90
46890;DHT22;32625;51.080;16.970;2022-12-18T12:28:09;-3.50;99.90
46890;DHT22;32625;51.080;16.970;2022-12-18T12:36:30;-3.40;99.90
46890;DHT22;32625;51.080;16.970;2022-12-18T12:39:06;-3.30;99.90
46890;DHT22;32625;51.080;16.970;2022-12-18T12:41:37;-2.20;99.90
46890;DHT22;32625;51.080;16.970;2022-12-18T12:44:31;-2.60;99.90
46890;DHT22;32625;51.080;16.970;2022-12-18T12:47:02;-2.00;99.90
46890;DHT22;32625;51.080;16.970;2022-12-18T12:49:33;-2.50;99.90
46890;DHT22;32625;51.080;16.970;2022-12-18T12:52:12;-3.20;99.90
46890;DHT22;32625;51.080;16.970;2022-12-18T12:54:41;-3.60;99.90
46890;DHT22;32625;51.080;16.970;2022-12-18T13:00:23;-3.60;99.90
46890;DHT22;32625;51.080;16.970;2022-12-18T13:08:27;-3.40;99.90
46890;DHT22;32625;51.080;16.970;2022-12-18T13:10:58;-3.50;99.90
46890;DHT22;32625;51.080;16.970;2022-12-18T13:13:54;-3.50;99.90
46890;DHT22;32625;51.080;16.970;2022-12-18T13:16:24;-3.10;99.90
46890;DHT22;32625;51.080;16.970;2022-12-18T13:18:53;-3.50;99.90
46890;DHT22;32625;51.080;16.970;2022-12-18T13:21:24;-3.20;99.90
46890;DHT22;32625;51.080;16.970;2022-12-18T13:23:54;-3.60;99.90
46890;DHT22;32625;51.080;16.970;2022-12-18T13:28:56;-2.60;99.90
46890;DHT22;32625;51.080;16.970;2022-12-18T13:34:20;-3.50;99.90
46890;DHT22;32625;51.080;16.970;2022-12-18T13:37:42;-3.60;99.90
46890;DHT22;32625;51.080;16.970;2022-12-18T13:39:43;-2.40;99.90
46890;DHT22;32625;51.080;16.970;2022-12-18T13:44:59;-2.80;99.90
46890;DHT22;32625;51.080;16.970;2022-12-18T13:47:32;-3.70;99.90
46890;DHT22;32625;51.080;16.970;2022-12-18T13:50:43;-3.70;99.90
46890;DHT22;32625;51.080;16.970;2022-12-18T13:53:21;-3.60;99.90
46890;DHT22;32625;51.080;16.970;2022-12-18T13:55:51;-2.70;99.90
46890;DHT22;32625;51.080;16.970;2022-12-18T13:58:19;-2.80;99.90
46890;DHT22;32625;51.080;16.970;2022-12-18T14:00:46;-2.30;99.90
46890;DHT22;32625;51.080;16.970;2022-12-18T14:03:23;-3.70;99.90
46890;DHT22;32625;51.080;16.970;2022-12-18T14:05:59;-3.60;99.90
46890;DHT22;32625;51.080;16.970;2022-12-18T14:08:32;-3.60;99.90
46890;DHT22;32625;51.080;16.970;2022-12-18T14:11:00;-3.80;99.90
46890;DHT22;32625;51.080;16.970;2022-12-18T14:13:31;-2.70;99.90
46890;DHT22;32625;51.080;16.970;2022-12-18T14:16:00;-3.20;99.90
46890;DHT22;32625;51.080;16.970;2022-12-18T14:18:48;-2.90;99.90
46890;DHT22;32625;51.080;16.970;2022-12-18T14:21:27;-2.80;99.90
46890;DHT22;32625;51.080;16.970;2022-12-18T14:26:35;-3.90;99.90
46890;DHT22;32625;51.080;16.970;2022-12-18T14:29:28;-3.90;99.90
46890;DHT22;32625;51.080;16.970;2022-12-18T14:32:13;-3.90;99.90
46890;DHT22;32625;51.080;16.970;2022-12-18T14:34:46;-3.90;99.90
46890;DHT22;32625;51.080;16.970;2022-12-18T14:37:16;-3.90;99.90
46890;DHT22;32625;51.080;16.970;2022-12-18T14:40:01;-2.60;99.90
46890;DHT22;32625;51.080;16.970;2022-12-18T14:42:37;-4.00;99.90
46890;DHT22;32625;51.080;16.970;2022-12-18T14:45:36;-4.10;99.90
46890;DHT22;32625;51.080;16.970;2022-12-18T14:48:24;-4.00;99.90
46890;DHT22;32625;51.080;16.970;2022-12-18T14:51:05;-4.10;99.90
46890;DHT22;32625;51.080;16.970;2022-12-18T14:53:45;-4.20;99.90
46890;DHT22;32625;51.080;16.970;2022-12-18T14:56:21;-4.10;99.90
46890;DHT22;32625;51.080;16.970;2022-12-18T14:58:51;-4.10;99.90
46890;DHT22;32625;51.080;16.970;2022-12-18T15:01:23;-2.90;99.90
46890;DHT22;32625;51.080;16.970;2022-12-18T15:03:52;-4.10;99.90
46890;DHT22;32625;51.080;16.970;2022-12-18T15:06:37;-2.70;99.90
46890;DHT22;32625;51.080;16.970;2022-12-18T15:09:23;-4.30;99.90
46890;DHT22;32625;51.080;16.970;2022-12-18T15:11:56;-4.40;99.90
46890;DHT22;32625;51.080;16.970;2022-12-18T15:14:40;-4.10;99.90
46890;DHT22;32625;51.080;16.970;2022-12-18T15:17:18;-4.40;99.90
46890;DHT22;32625;51.080;16.970;2022-12-18T15:19:48;-4.30;99.90
46890;DHT22;32625;51.080;16.970;2022-12-18T15:22:28;-4.30;99.90
46890;DHT22;32625;51.080;16.970;2022-12-18T15:24:57;-4.30;99.90
46890;DHT22;32625;51.080;16.970;2022-12-18T15:27:33;-4.40;99.90
46890;DHT22;32625;51.080;16.970;2022-12-18T15:32:39;-4.50;99.90
46890;DHT22;32625;51.080;16.970;2022-12-18T15:35:20;-3.20;99.90
46890;DHT22;32625;51.080;16.970;2022-12-18T15:37:48;-4.50;99.90
46890;DHT22;32625;51.080;16.970;2022-12-18T15:40:19;-4.50;99.90
46890;DHT22;32625;51.080;16.970;2022-12-18T15:42:47;-4.60;99.90
46890;DHT22;32625;51.080;16.970;2022-12-18T15:45:34;-4.60;99.90
46890;DHT22;32625;51.080;16.970;2022-12-18T15:48:20;-4.60;99.90
46890;DHT22;32625;51.080;16.970;2022-12-18T15:50:50;-4.60;99.90
46890;DHT22;32625;51.080;16.970;2022-12-18T15:53:19;-4.80;99.90
46890;DHT22;32625;51.080;16.970;2022-12-18T15:55:46;-4.50;99.90
46890;DHT22;32625;51.080;16.970;2022-12-18T15:58:32;-3.50;99.90
46890;DHT22;32625;51.080;16.970;2022-12-18T16:01:00;-4.70;99.90
46890;DHT22;32625;51.080;16.970;2022-12-18T16:03:28;-3.90;99.90
46890;DHT22;32625;51.080;16.970;2022-12-18T16:05:55;-3.70;99.90
46890;DHT22;32625;51.080;16.970;2022-12-18T16:08:24;-4.60;99.90
46890;DHT22;32625;51.080;16.970;2022-12-18T16:10:51;-4.80;99.90
46890;DHT22;32625;51.080;16.970;2022-12-18T16:13:19;-4.90;99.90
46890;DHT22;32625;51.080;16.970;2022-12-18T16:15:47;-4.90;99.90
46890;DHT22;32625;51.080;16.970;2022-12-18T16:18:14;-5.00;99.90
46890;DHT22;32625;51.080;16.970;2022-12-18T16:20:41;-5.00;99.90
46890;DHT22;32625;51.080;16.970;2022-12-18T16:23:08;-5.10;99.90
46890;DHT22;32625;51.080;16.970;2022-12-18T16:25:35;-5.10;99.90
46890;DHT22;32625;51.080;16.970;2022-12-18T16:28:06;-3.90;99.90
46890;DHT22;32625;51.080;16.970;2022-12-18T16:30:33;-5.20;99.90
46890;DHT22;32625;51.080;16.970;2022-12-18T16:33:05;-4.10;99.90
46890;DHT22;32625;51.080;16.970;2022-12-18T16:35:33;-4.00;99.90
46890;DHT22;32625;51.080;16.970;2022-12-18T16:38:00;-3.90;99.90
46890;DHT22;32625;51.080;16.970;2022-12-18T16:40:27;-4.60;99.90
46890;DHT22;32625;51.080;16.970;2022-12-18T16:42:54;-4.00;99.90
46890;DHT22;32625;51.080;16.970;2022-12-18T16:45:21;-3.70;99.90
46890;DHT22;32625;51.080;16.970;2022-12-18T16:47:48;-4.50;99.90
46890;DHT22;32625;51.080;16.970;2022-12-18T16:50:16;-3.70;99.90
46890;DHT22;32625;51.080;16.970;2022-12-18T16:52:43;-5.30;99.90
46890;DHT22;32625;51.080;16.970;2022-12-18T16:55:10;-5.40;99.90
46890;DHT22;32625;51.080;16.970;2022-12-18T16:57:37;-5.50;99.90
46890;DHT22;32625;51.080;16.970;2022-12-18T17:00:05;-3.80;99.90
46890;DHT22;32625;51.080;16.970;2022-12-18T17:02:32;-5.60;99.90
46890;DHT22;32625;51.080;16.970;2022-12-18T17:05:00;-5.70;99.90
46890;DHT22;32625;51.080;16.970;2022-12-18T17:07:27;-5.70;99.90
46890;DHT22;32625;51.080;16.970;2022-12-18T17:09:55;-5.50;99.90
46890;DHT22;32625;51.080;16.970;2022-12-18T17:12:22;-4.50;99.90
46890;DHT22;32625;51.080;16.970;2022-12-18T17:14:49;-5.90;99.90
46890;DHT22;32625;51.080;16.970;2022-12-18T17:17:17;-4.20;99.90
46890;DHT22;32625;51.080;16.970;2022-12-18T17:19:49;-4.90;99.90
46890;DHT22;32625;51.080;16.970;2022-12-18T17:22:16;-4.20;99.90
46890;DHT22;32625;51.080;16.970;2022-12-18T17:24:44;-6.00;99.90
46890;DHT22;32625;51.080;16.970;2022-12-18T17:27:12;-6.00;99.90
46890;DHT22;32625;51.080;16.970;2022-12-18T17:29:39;-6.00;99.90
46890;DHT22;32625;51.080;16.970;2022-12-18T17:32:14;-6.10;99.90